Observation data for Northfield on 11/16/2019      Previous  Date       Current Mesonet Observations  Soil Data  Daily Summary Page  Observations in Plain Language
KNOR 160600Z 17008KT 06/M01 A3018 RMK A01 T00631014  RH  058%=      5-min Rain = 0
KNOR 160605Z 17008KT 06/M01 A3018 RMK A01 T00621014  RH  059%=      5-min Rain = 0
KNOR 160610Z 17008KT 06/M02 A3017 RMK A01 T00601015  RH  059%=      5-min Rain = 0
KNOR 160615Z 17008KT 06/M01 A3017 RMK A01 T00591014  RH  060%=      5-min Rain = 0
KNOR 160620Z 17008KT 06/M01 A3017 RMK A01 T00601014  RH  060%=      5-min Rain = 0
KNOR 160625Z 17008KT 06/M01 A3017 RMK A01 T00611014  RH  059%=      5-min Rain = 0
KNOR 160630Z 17008KT 06/M01 A3017 RMK A01 T00611014  RH  059%=      5-min Rain = 0
KNOR 160635Z 17009KT 06/M01 A3017 RMK A01 T00601014  RH  060%=      5-min Rain = 0
KNOR 160640Z 17009KT 06/M02 A3017 RMK A01 T00631015  RH  058%=      5-min Rain = 0
KNOR 160645Z 17008KT 06/M02 A3017 RMK A01 T00631015  RH  058%=      5-min Rain = 0
KNOR 160650Z 17008KT 06/M02 A3017 RMK A01 T00611016  RH  058%=      5-min Rain = 0
KNOR 160655Z 18006KT 06/M02 A3017 RMK A01 T00581016  RH  059%=      5-min Rain = 0
KNOR 160700Z 19006KT 06/M02 A3017 RMK A01 T00551017  RH  060%=      5-min Rain = 0
KNOR 160705Z 18006KT 05/M02 A3017 RMK A01 T00521016  RH  062%=      5-min Rain = 0
KNOR 160710Z 18006KT 05/M02 A3017 RMK A01 T00511016  RH  063%=      5-min Rain = 0
KNOR 160715Z 18006KT 05/M02 A3016 RMK A01 T00481017  RH  063%=      5-min Rain = 0
KNOR 160720Z 18006KT 05/M02 A3016 RMK A01 T00471016  RH  064%=      5-min Rain = 0
KNOR 160725Z 18006KT 05/M02 A3016 RMK A01 T00481016  RH  064%=      5-min Rain = 0
KNOR 160730Z 18007KT 05/M02 A3016 RMK A01 T00471016  RH  064%=      5-min Rain = 0
KNOR 160735Z 18008KT 05/M02 A3015 RMK A01 T00481016  RH  064%=      5-min Rain = 0
KNOR 160740Z 18008KT 05/M02 A3015 RMK A01 T00511016  RH  063%=      5-min Rain = 0
KNOR 160745Z 19008KT 06/M02 A3015 RMK A01 T00551016  RH  061%=      5-min Rain = 0
KNOR 160750Z 19007KT 06/M02 A3015 RMK A01 T00591016  RH  059%=      5-min Rain = 0
KNOR 160755Z 19007KT 06/M02 A3015 RMK A01 T00611017  RH  058%=      5-min Rain = 0
KNOR 160800Z 20007KT 06/M02 A3015 RMK A01 T00621017  RH  057%=      5-min Rain = 0
KNOR 160805Z 20007KT 06/M02 A3015 RMK A01 T00641017  RH  057%=      5-min Rain = 0
KNOR 160810Z 20007KT 06/M02 A3015 RMK A01 T00631017  RH  057%=      5-min Rain = 0
KNOR 160815Z 20007KT 06/M02 A3015 RMK A01 T00641017  RH  057%=      5-min Rain = 0
KNOR 160820Z 20006KT 06/M02 A3015 RMK A01 T00631018  RH  057%=      5-min Rain = 0
KNOR 160825Z 20006KT 06/M02 A3015 RMK A01 T00631018  RH  057%=      5-min Rain = 0
KNOR 160830Z 20005KT 06/M02 A3015 RMK A01 T00611019  RH  057%=      5-min Rain = 0
KNOR 160835Z 20005KT 06/M02 A3015 RMK A01 T00591019  RH  058%=      5-min Rain = 0
KNOR 160840Z 19005KT 06/M02 A3015 RMK A01 T00581019  RH  058%=      5-min Rain = 0
KNOR 160845Z 19006KT 06/M02 A3015 RMK A01 T00571019  RH  059%=      5-min Rain = 0
KNOR 160850Z 18007KT 06/M02 A3015 RMK A01 T00551019  RH  060%=      5-min Rain = 0
KNOR 160855Z 18007KT 05/M02 A3015 RMK A01 T00521019  RH  061%=      5-min Rain = 0
KNOR 160900Z 18008KT 05/M02 A3015 RMK A01 T00521018  RH  061%=      5-min Rain = 0
KNOR 160905Z 18008KT 05/M02 A3015 RMK A01 T00531017  RH  061%=      5-min Rain = 0
KNOR 160910Z 19007KT 05/M02 A3015 RMK A01 T00541018  RH  061%=      5-min Rain = 0
KNOR 160915Z 19007KT 05/M02 A3014 RMK A01 T00531018  RH  061%=      5-min Rain = 0
KNOR 160920Z 19007KT 05/M02 A3014 RMK A01 T00501019  RH  062%=      5-min Rain = 0
KNOR 160925Z 18008KT 05/M02 A3014 RMK A01 T00491019  RH  062%=      5-min Rain = 0
KNOR 160930Z 18007KT 05/M02 A3014 RMK A01 T00481019  RH  063%=      5-min Rain = 0
KNOR 160935Z 18008KT 05/M02 A3014 RMK A01 T00451019  RH  064%=      5-min Rain = 0
KNOR 160940Z 18008KT 04/M02 A3014 RMK A01 T00431018  RH  065%=      5-min Rain = 0
KNOR 160945Z 18008KT 04/M02 A3014 RMK A01 T00431018  RH  065%=      5-min Rain = 0
KNOR 160950Z 18008KT 05/M02 A3013 RMK A01 T00451017  RH  064%=      5-min Rain = 0
KNOR 160955Z 18008KT 05/M02 A3013 RMK A01 T00461017  RH  064%=      5-min Rain = 0
KNOR 161000Z 18009KT 05/M02 A3013 RMK A01 T00471017  RH  064%=      5-min Rain = 0
KNOR 161005Z 18009KT 05/M02 A3013 RMK A01 T00481017  RH  063%=      5-min Rain = 0
KNOR 161010Z 18008KT 05/M02 A3013 RMK A01 T00471017  RH  063%=      5-min Rain = 0
KNOR 161015Z 18009KT 05/M02 A3013 RMK A01 T00471017  RH  064%=      5-min Rain = 0
KNOR 161020Z 18009KT 05/M02 A3013 RMK A01 T00471017  RH  064%=      5-min Rain = 0
KNOR 161025Z 17008KT 05/M02 A3013 RMK A01 T00461017  RH  064%=      5-min Rain = 0
KNOR 161030Z 17008KT 05/M02 A3013 RMK A01 T00451017  RH  064%=      5-min Rain = 0
KNOR 161035Z 17008KT 05/M02 A3013 RMK A01 T00451018  RH  064%=      5-min Rain = 0
KNOR 161040Z 17007KT 04/M02 A3013 RMK A01 T00421018  RH  065%=      5-min Rain = 0
KNOR 161045Z 17006KT 04/M02 A3013 RMK A01 T00411018  RH  066%=      5-min Rain = 0
KNOR 161050Z 18007KT 04/M02 A3013 RMK A01 T00411018  RH  066%=      5-min Rain = 0
KNOR 161055Z 18006KT 04/M02 A3013 RMK A01 T00401019  RH  066%=      5-min Rain = 0
KNOR 161100Z 19006KT 04/M02 A3013 RMK A01 T00361020  RH  067%=      5-min Rain = 0
KNOR 161105Z 20005KT 03/M02 A3013 RMK A01 T00321021  RH  069%=      5-min Rain = 0
KNOR 161110Z 20006KT 03/M02 A3013 RMK A01 T00331020  RH  069%=      5-min Rain = 0
KNOR 161115Z 19006KT 03/M02 A3012 RMK A01 T00331020  RH  069%=      5-min Rain = 0
KNOR 161120Z 19006KT 03/M02 A3012 RMK A01 T00331020  RH  068%=      5-min Rain = 0
KNOR 161125Z 19007KT 03/M02 A3012 RMK A01 T00311021  RH  069%=      5-min Rain = 0
KNOR 161130Z 19007KT 03/M02 A3012 RMK A01 T00321020  RH  069%=      5-min Rain = 0
KNOR 161135Z 18008KT 03/M02 A3012 RMK A01 T00321020  RH  069%=      5-min Rain = 0
KNOR 161140Z 18008KT 03/M02 A3012 RMK A01 T00341019  RH  069%=      5-min Rain = 0
KNOR 161145Z 18008KT 04/M02 A3012 RMK A01 T00361018  RH  068%=      5-min Rain = 0
KNOR 161150Z 18008KT 04/M02 A3012 RMK A01 T00361018  RH  068%=      5-min Rain = 0
KNOR 161155Z 18007KT 04/M02 A3012 RMK A01 T00371017  RH  068%=      5-min Rain = 0
KNOR 161200Z 18007KT 04/M02 A3012 RMK A01 T00371017  RH  069%=      5-min Rain = 0
KNOR 161205Z 18007KT 04/M02 A3012 RMK A01 T00371017  RH  068%=      5-min Rain = 0
KNOR 161210Z 18007KT 04/M02 A3012 RMK A01 T00371017  RH  068%=      5-min Rain = 0
KNOR 161215Z 18007KT 04/M02 A3012 RMK A01 T00371017  RH  068%=      5-min Rain = 0
KNOR 161220Z 17007KT 04/M02 A3012 RMK A01 T00371018  RH  068%=      5-min Rain = 0
KNOR 161225Z 18007KT 03/M02 A3012 RMK A01 T00331018  RH  070%=      5-min Rain = 0
KNOR 161230Z 17006KT 04/M02 A3012 RMK A01 T00351017  RH  070%=      5-min Rain = 0
KNOR 161235Z 17006KT 04/M02 A3012 RMK A01 T00371016  RH  069%=      5-min Rain = 0
KNOR 161240Z 17006KT 04/M02 A3012 RMK A01 T00381016  RH  069%=      5-min Rain = 0
KNOR 161245Z 17006KT 04/M02 A3012 RMK A01 T00381015  RH  069%=      5-min Rain = 0
KNOR 161250Z 17007KT 04/M01 A3012 RMK A01 T00391014  RH  069%=      5-min Rain = 0
KNOR 161255Z 17007KT 04/M01 A3012 RMK A01 T00391013  RH  069%=      5-min Rain = 0
KNOR 161300Z 17007KT 04/M01 A3012 RMK A01 T00441011  RH  068%=      5-min Rain = 0
KNOR 161305Z 18007KT 05/M01 A3012 RMK A01 T00521010  RH  065%=      5-min Rain = 0
KNOR 161310Z 18007KT 06/M01 A3012 RMK A01 T00571010  RH  063%=      5-min Rain = 0
KNOR 161315Z 18007KT 06/M01 A3012 RMK A01 T00551011  RH  063%=      5-min Rain = 0
KNOR 161320Z 18007KT 05/M01 A3012 RMK A01 T00521012  RH  064%=      5-min Rain = 0
KNOR 161325Z 18007KT 05/M01 A3012 RMK A01 T00531011  RH  064%=      5-min Rain = 0
KNOR 161330Z 18007KT 06/M01 A3012 RMK A01 T00561010  RH  063%=      5-min Rain = 0
KNOR 161335Z 18007KT 06/M01 A3012 RMK A01 T00591009  RH  062%=      5-min Rain = 0
KNOR 161340Z 18007KT 06/M01 A3012 RMK A01 T00611009  RH  062%=      5-min Rain = 0
KNOR 161345Z 18006KT 06/M01 A3012 RMK A01 T00601009  RH  062%=      5-min Rain = 0
KNOR 161350Z 19005KT 06/M01 A3012 RMK A01 T00601009  RH  062%=      5-min Rain = 0
KNOR 161355Z 19003KT 06/M01 A3012 RMK A01 T00561009  RH  064%=      5-min Rain = 0
KNOR 161400Z 19004KT 06/M01 A3012 RMK A01 T00551008  RH  065%=      5-min Rain = 0
KNOR 161405Z 18005KT 06/M01 A3012 RMK A01 T00561007  RH  064%=      5-min Rain = 0
KNOR 161410Z 17005KT 06/M01 A3012 RMK A01 T00591007  RH  063%=      5-min Rain = 0
KNOR 161415Z 18006KT 06/M01 A3012 RMK A01 T00611006  RH  063%=      5-min Rain = 0
KNOR 161420Z 17005KT 06/M00 A3012 RMK A01 T00641004  RH  062%=      5-min Rain = 0
KNOR 161425Z 18005KT 07/M00 A3012 RMK A01 T00671003  RH  062%=      5-min Rain = 0
KNOR 161430Z 18005KT 07/M00 A3012 RMK A01 T00701003  RH  060%=      5-min Rain = 0
KNOR 161435Z 18005KT 07/M00 A3012 RMK A01 T00741002  RH  059%=      5-min Rain = 0
KNOR 161440Z 19006KT 08/M00 A3012 RMK A01 T00771002  RH  058%=      5-min Rain = 0
KNOR 161445Z 19006KT 08/M00 A3012 RMK A01 T00791002  RH  057%=      5-min Rain = 0
KNOR 161450Z 18007KT 08/M00 A3012 RMK A01 T00821002  RH  056%=      5-min Rain = 0
KNOR 161455Z 19007KT 09/M00 A3012 RMK A01 T00851001  RH  055%=      5-min Rain = 0
KNOR 161500Z 18007KT 09/M00 A3011 RMK A01 T00891001  RH  054%=      5-min Rain = 0
KNOR 161505Z 18007KT 10/00 A3011 RMK A01 T00970001  RH  052%=      5-min Rain = 0
KNOR 161510Z 19008KT 10/00 A3011 RMK A01 T01030002  RH  050%=      5-min Rain = 0
KNOR 161515Z 19007KT 11/00 A3011 RMK A01 T01090004  RH  049%=      5-min Rain = 0
KNOR 161520Z 19009KT 11/00 A3011 RMK A01 T01130002  RH  047%=      5-min Rain = 0
KNOR 161525Z 20009KT 11/00 A3011 RMK A01 T01130003  RH  047%=      5-min Rain = 0
KNOR 161530Z 20008KT 12/01 A3011 RMK A01 T01150005  RH  047%=      5-min Rain = 0
KNOR 161535Z 20008G13KT 12/01 A3011 RMK A01 T01220006  RH  045%=      5-min Rain = 0
KNOR 161540Z 21008KT 12/01 A3011 RMK A01 T01210006  RH  046%=      5-min Rain = 0
KNOR 161545Z 20009KT 12/01 A301 RMK A01 T01230006  RH  045%=      5-min Rain = 0
KNOR 161550Z 20008KT 13/01 A301 RMK A01 T01250007  RH  045%=      5-min Rain = 0
KNOR 161555Z 20009KT 13/01 A301 RMK A01 T01300008  RH  044%=      5-min Rain = 0
KNOR 161600Z 21009KT 13/01 A301 RMK A01 T01300008  RH  044%=      5-min Rain = 0
KNOR 161605Z 21011G16KT 14/01 A301 RMK A01 T01370007  RH  042%=      5-min Rain = 0
KNOR 161610Z 21012G18KT 15/01 A301 RMK A01 T01450006  RH  039%=      5-min Rain = 0
KNOR 161615Z 20013G18KT 15/01 A301 RMK A01 T01480005  RH  038%=      5-min Rain = 0
KNOR 161620Z 21010G15KT 15/01 A301 RMK A01 T01510006  RH  038%=      5-min Rain = 0
KNOR 161625Z 21013KT 16/01 A3009 RMK A01 T01560006  RH  037%=      5-min Rain = 0
KNOR 161630Z 20012KT 16/01 A3009 RMK A01 T01560006  RH  036%=      5-min Rain = 0
KNOR 161635Z 20013G18KT 17/01 A3009 RMK A01 T01650007  RH  035%=      5-min Rain = 0
KNOR 161640Z 21013KT 16/01 A3009 RMK A01 T01630006  RH  035%=      5-min Rain = 0
KNOR 161645Z 22013KT 17/01 A3009 RMK A01 T01700006  RH  034%=      5-min Rain = 0
KNOR 161650Z 20013KT 17/01 A3008 RMK A01 T01740006  RH  033%=      5-min Rain = 0
KNOR 161655Z 20012KT 17/01 A3008 RMK A01 T01740005  RH  032%=      5-min Rain = 0
KNOR 161700Z 21012G18KT 18/01 A3008 RMK A01 T01810006  RH  031%=      5-min Rain = 0
KNOR 161705Z 21013KT 17/00 A3008 RMK A01 T01730004  RH  032%=      5-min Rain = 0
KNOR 161710Z 20011KT 17/01 A3007 RMK A01 T01740005  RH  032%=      5-min Rain = 0
KNOR 161715Z 21011G17KT 18/01 A3007 RMK A01 T01810007  RH  031%=      5-min Rain = 0
KNOR 161720Z 21012G17KT 19/01 A3007 RMK A01 T01870005  RH  030%=      5-min Rain = 0
KNOR 161725Z 21011KT 18/01 A3007 RMK A01 T01800005  RH  031%=      5-min Rain = 0
KNOR 161730Z 19012KT 19/01 A3006 RMK A01 T01870007  RH  030%=      5-min Rain = 0
KNOR 161735Z 20012KT 19/01 A3006 RMK A01 T01890006  RH  030%=      5-min Rain = 0
KNOR 161740Z 19013G18KT 19/01 A3006 RMK A01 T01880005  RH  029%=      5-min Rain = 0
KNOR 161745Z 20014KT 19/00 A3006 RMK A01 T01860004  RH  030%=      5-min Rain = 0
KNOR 161750Z 20013KT 18/00 A3006 RMK A01 T01830004  RH  030%=      5-min Rain = 0
KNOR 161755Z 20013G18KT 18/01 A3005 RMK A01 T01840005  RH  030%=      5-min Rain = 0
KNOR 161800Z 20012G17KT 19/01 A3005 RMK A01 T01940005  RH  028%=      5-min Rain = 0
KNOR 161805Z 19014KT 20/00 A3005 RMK A01 T01950004  RH  028%=      5-min Rain = 0
KNOR 161810Z 18013G19KT 20/01 A3004 RMK A01 T01960005  RH  028%=      5-min Rain = 0
KNOR 161815Z 19013G19KT 20/00 A3004 RMK A01 T01960004  RH  028%=      5-min Rain = 0
KNOR 161820Z 19013KT 20/00 A3004 RMK A01 T01950004  RH  028%=      5-min Rain = 0
KNOR 161825Z 20012G17KT 20/00 A3004 RMK A01 T01990004  RH  027%=      5-min Rain = 0
KNOR 161830Z 19013G18KT 20/00 A3003 RMK A01 T01990004  RH  027%=      5-min Rain = 0
KNOR 161835Z 19013G18KT 20/00 A3003 RMK A01 T01980003  RH  027%=      5-min Rain = 0
KNOR 161840Z 18011G16KT 20/00 A3002 RMK A01 T01980004  RH  028%=      5-min Rain = 0
KNOR 161845Z 19013KT 20/00 A3002 RMK A01 T01990003  RH  027%=      5-min Rain = 0
KNOR 161850Z 19011G16KT 20/00 A3001 RMK A01 T02000003  RH  027%=      5-min Rain = 0
KNOR 161855Z 20013KT 20/00 A3001 RMK A01 T02000002  RH  027%=      5-min Rain = 0
KNOR 161900Z 20013KT 20/00 A3001 RMK A01 T02020004  RH  027%=      5-min Rain = 0
KNOR 161905Z 18013KT 20/00 A3001 RMK A01 T02000004  RH  027%=      5-min Rain = 0
KNOR 161910Z 18016KT 20/00 A30 RMK A01 T01970003  RH  027%=      5-min Rain = 0
KNOR 161915Z 18013G18KT 20/00 A30 RMK A01 T01990003  RH  027%=      5-min Rain = 0
KNOR 161920Z 18012G18KT 20/01 A2999 RMK A01 T02000006  RH  028%=      5-min Rain = 0
KNOR 161925Z 18013G20KT 20/01 A2999 RMK A01 T01990005  RH  028%=      5-min Rain = 0
KNOR 161930Z 18013G18KT 20/01 A2999 RMK A01 T01970005  RH  028%=      5-min Rain = 0
KNOR 161935Z 19014KT 20/01 A2998 RMK A01 T01960005  RH  028%=      5-min Rain = 0
KNOR 161940Z 19013KT 19/01 A2998 RMK A01 T01930006  RH  029%=      5-min Rain = 0
KNOR 161945Z 18014G19KT 19/01 A2998 RMK A01 T01900005  RH  029%=      5-min Rain = 0
KNOR 161950Z 19014G19KT 19/01 A2997 RMK A01 T01870006  RH  030%=      5-min Rain = 0
KNOR 161955Z 19013KT 19/01 A2997 RMK A01 T01860007  RH  031%=      5-min Rain = 0
KNOR 162000Z 18014G19KT 18/01 A2997 RMK A01 T01840007  RH  031%=      5-min Rain = 0
KNOR 162005Z 18011KT 19/01 A2997 RMK A01 T01860008  RH  031%=      5-min Rain = 0
KNOR 162010Z 18013KT 19/01 A2997 RMK A01 T01870008  RH  030%=      5-min Rain = 0
KNOR 162015Z 18013KT 18/01 A2997 RMK A01 T01840008  RH  031%=      5-min Rain = 0
KNOR 162020Z 18011KT 19/01 A2997 RMK A01 T01860009  RH  031%=      5-min Rain = 0
KNOR 162025Z 18011KT 19/01 A2996 RMK A01 T01850009  RH  031%=      5-min Rain = 0
KNOR 162030Z 18011KT 19/01 A2996 RMK A01 T01860011  RH  031%=      5-min Rain = 0
KNOR 162035Z 18011KT 19/01 A2996 RMK A01 T01850011  RH  032%=      5-min Rain = 0
KNOR 162040Z 17011G16KT 19/01 A2996 RMK A01 T01870012  RH  031%=      5-min Rain = 0
KNOR 162045Z 17009KT 19/01 A2996 RMK A01 T01890012  RH  031%=      5-min Rain = 0
KNOR 162050Z 18010KT 19/01 A2996 RMK A01 T01920012  RH  030%=      5-min Rain = 0
KNOR 162055Z 18012KT 19/01 A2996 RMK A01 T01920011  RH  030%=      5-min Rain = 0
KNOR 162100Z 18011G16KT 19/01 A2996 RMK A01 T01930011  RH  030%=      5-min Rain = 0
KNOR 162105Z 18011KT 19/01 A2995 RMK A01 T01940010  RH  030%=      5-min Rain = 0
KNOR 162110Z 17011G16KT 20/01 A2995 RMK A01 T01950011  RH  030%=      5-min Rain = 0
KNOR 162115Z 17009G14KT 20/01 A2995 RMK A01 T01970012  RH  030%=      5-min Rain = 0
KNOR 162120Z 17012KT 20/01 A2995 RMK A01 T02000012  RH  029%=      5-min Rain = 0
KNOR 162125Z 17011G18KT 20/01 A2995 RMK A01 T02020013  RH  029%=      5-min Rain = 0
KNOR 162130Z 17015G20KT 20/01 A2995 RMK A01 T02010013  RH  029%=      5-min Rain = 0
KNOR 162135Z 17015KT 20/01 A2995 RMK A01 T01970013  RH  030%=      5-min Rain = 0
KNOR 162140Z 17013G18KT 20/01 A2995 RMK A01 T01980013  RH  030%=      5-min Rain = 0
KNOR 162145Z 18011KT 20/01 A2995 RMK A01 T02030013  RH  028%=      5-min Rain = 0
KNOR 162150Z 19013KT 21/01 A2995 RMK A01 T02090013  RH  028%=      5-min Rain = 0
KNOR 162155Z 18012G19KT 20/01 A2995 RMK A01 T02040014  RH  029%=      5-min Rain = 0
KNOR 162200Z 18012G17KT 20/02 A2995 RMK A01 T02020015  RH  029%=      5-min Rain = 0
KNOR 162205Z 18012KT 20/02 A2995 RMK A01 T02040016  RH  029%=      5-min Rain = 0
KNOR 162210Z 18014G19KT 20/02 A2994 RMK A01 T02030015  RH  029%=      5-min Rain = 0
KNOR 162215Z 18013G19KT 20/01 A2994 RMK A01 T02030014  RH  029%=      5-min Rain = 0
KNOR 162220Z 18012G17KT 20/01 A2995 RMK A01 T02010013  RH  029%=      5-min Rain = 0
KNOR 162225Z 19014G19KT 20/01 A2995 RMK A01 T01990012  RH  029%=      5-min Rain = 0
KNOR 162230Z 17012G19KT 20/01 A2994 RMK A01 T02000012  RH  029%=      5-min Rain = 0
KNOR 162235Z 18013KT 20/01 A2994 RMK A01 T01970013  RH  030%=      5-min Rain = 0
KNOR 162240Z 18013G18KT 20/02 A2994 RMK A01 T01960015  RH  030%=      5-min Rain = 0
KNOR 162245Z 18013KT 20/02 A2994 RMK A01 T01950016  RH  031%=      5-min Rain = 0
KNOR 162250Z 17012G17KT 19/02 A2994 RMK A01 T01910017  RH  032%=      5-min Rain = 0
KNOR 162255Z 18012G17KT 19/02 A2995 RMK A01 T01860018  RH  033%=      5-min Rain = 0
KNOR 162300Z 18012KT 18/02 A2995 RMK A01 T01840019  RH  033%=      5-min Rain = 0
KNOR 162305Z 17009KT 18/02 A2995 RMK A01 T01820020  RH  034%=      5-min Rain = 0
KNOR 162310Z 17010G15KT 18/02 A2995 RMK A01 T01780022  RH  036%=      5-min Rain = 0
KNOR 162315Z 17011KT 18/02 A2995 RMK A01 T01770024  RH  036%=      5-min Rain = 0
KNOR 162320Z 17012KT 17/02 A2995 RMK A01 T01740024  RH  037%=      5-min Rain = 0
KNOR 162325Z 17010KT 17/02 A2995 RMK A01 T01700024  RH  038%=      5-min Rain = 0
KNOR 162330Z 17010KT 17/03 A2995 RMK A01 T01670025  RH  039%=      5-min Rain = 0
KNOR 162335Z 18011KT 17/02 A2995 RMK A01 T01670024  RH  039%=      5-min Rain = 0
KNOR 162340Z 18011KT 17/02 A2995 RMK A01 T01670023  RH  038%=      5-min Rain = 0
KNOR 162345Z 18010KT 16/02 A2995 RMK A01 T01630022  RH  039%=      5-min Rain = 0
KNOR 162350Z 18010KT 16/02 A2995 RMK A01 T01620023  RH  040%=      5-min Rain = 0
KNOR 162355Z 17009KT 16/02 A2995 RMK A01 T01580023  RH  041%=      5-min Rain = 0
KNOR 170000Z 16009KT 16/02 A2995 RMK A01 T01550023  RH  042%=      5-min Rain = 0
KNOR 170005Z 16010KT 15/02 A2995 RMK A01 T01530024  RH  042%=      5-min Rain = 0
KNOR 170010Z 16009KT 15/02 A2995 RMK A01 T01510024  RH  043%=      5-min Rain = 0
KNOR 170015Z 16009KT 15/02 A2995 RMK A01 T01480024  RH  044%=      5-min Rain = 0
KNOR 170020Z 15009KT 15/02 A2995 RMK A01 T01460024  RH  045%=      5-min Rain = 0
KNOR 170025Z 15009KT 14/03 A2995 RMK A01 T01440025  RH  045%=      5-min Rain = 0
KNOR 170030Z 15009KT 14/03 A2995 RMK A01 T01440025  RH  045%=      5-min Rain = 0
KNOR 170035Z 15009KT 14/03 A2995 RMK A01 T01440026  RH  046%=      5-min Rain = 0
KNOR 170040Z 15009KT 14/03 A2995 RMK A01 T01430027  RH  046%=      5-min Rain = 0
KNOR 170045Z 15008KT 14/03 A2995 RMK A01 T01410027  RH  047%=      5-min Rain = 0
KNOR 170050Z 15008KT 14/03 A2995 RMK A01 T01400028  RH  048%=      5-min Rain = 0
KNOR 170055Z 16008KT 14/03 A2996 RMK A01 T01370029  RH  049%=      5-min Rain = 0
KNOR 170100Z 16007KT 14/03 A2995 RMK A01 T01370030  RH  049%=      5-min Rain = 0
KNOR 170105Z 16007KT 14/03 A2996 RMK A01 T01370030  RH  049%=      5-min Rain = 0
KNOR 170110Z 16008KT 14/03 A2996 RMK A01 T01360031  RH  050%=      5-min Rain = 0
KNOR 170115Z 16007KT 14/03 A2996 RMK A01 T01360032  RH  050%=      5-min Rain = 0
KNOR 170120Z 16007KT 14/03 A2996 RMK A01 T01360033  RH  051%=      5-min Rain = 0
KNOR 170125Z 16007KT 14/03 A2996 RMK A01 T01360033  RH  051%=      5-min Rain = 0
KNOR 170130Z 15006KT 13/03 A2996 RMK A01 T01340033  RH  051%=      5-min Rain = 0
KNOR 170135Z 15006KT 13/03 A2996 RMK A01 T01310033  RH  052%=      5-min Rain = 0
KNOR 170140Z 15006KT 13/03 A2996 RMK A01 T01290033  RH  053%=      5-min Rain = 0
KNOR 170145Z 15006KT 13/03 A2996 RMK A01 T01280033  RH  054%=      5-min Rain = 0
KNOR 170150Z 16006KT 13/03 A2996 RMK A01 T01250033  RH  054%=      5-min Rain = 0
KNOR 170155Z 16005KT 12/03 A2996 RMK A01 T01220033  RH  055%=      5-min Rain = 0
KNOR 170200Z 17006KT 12/03 A2996 RMK A01 T01210033  RH  056%=      5-min Rain = 0
KNOR 170205Z 17006KT 12/03 A2996 RMK A01 T01200033  RH  056%=      5-min Rain = 0
KNOR 170210Z 17006KT 12/03 A2996 RMK A01 T01200034  RH  056%=      5-min Rain = 0
KNOR 170215Z 18006KT 12/03 A2996 RMK A01 T01200034  RH  056%=      5-min Rain = 0
KNOR 170220Z 17007KT 12/03 A2995 RMK A01 T01190033  RH  057%=      5-min Rain = 0
KNOR 170225Z 17007KT 12/03 A2995 RMK A01 T01200034  RH  057%=      5-min Rain = 0
KNOR 170230Z 16008KT 12/03 A2995 RMK A01 T01200034  RH  057%=      5-min Rain = 0
KNOR 170235Z 16008KT 12/03 A2995 RMK A01 T01200034  RH  057%=      5-min Rain = 0
KNOR 170240Z 16008KT 12/04 A2995 RMK A01 T01200035  RH  057%=      5-min Rain = 0
KNOR 170245Z 16008KT 12/04 A2995 RMK A01 T01210035  RH  056%=      5-min Rain = 0
KNOR 170250Z 16007KT 12/04 A2995 RMK A01 T01210035  RH  056%=      5-min Rain = 0
KNOR 170255Z 16007KT 12/03 A2995 RMK A01 T01200034  RH  057%=      5-min Rain = 0
KNOR 170300Z 16007KT 12/03 A2995 RMK A01 T01190034  RH  057%=      5-min Rain = 0
KNOR 170305Z 16006KT 12/03 A2995 RMK A01 T01170034  RH  058%=      5-min Rain = 0
KNOR 170310Z 16005KT 12/03 A2995 RMK A01 T01150034  RH  058%=      5-min Rain = 0
KNOR 170315Z 16005KT 11/03 A2995 RMK A01 T01140033  RH  059%=      5-min Rain = 0
KNOR 170320Z 15004KT 11/03 A2994 RMK A01 T01130033  RH  059%=      5-min Rain = 0
KNOR 170325Z 15004KT 11/03 A2995 RMK A01 T01130033  RH  059%=      5-min Rain = 0
KNOR 170330Z 15004KT 11/03 A2995 RMK A01 T01130033  RH  059%=      5-min Rain = 0
KNOR 170335Z 15004KT 11/03 A2994 RMK A01 T01100033  RH  060%=      5-min Rain = 0
KNOR 170340Z 15005KT 11/03 A2994 RMK A01 T01080032  RH  061%=      5-min Rain = 0
KNOR 170345Z 15006KT 11/03 A2994 RMK A01 T01060032  RH  061%=      5-min Rain = 0
KNOR 170350Z 15006KT 11/03 A2994 RMK A01 T01050032  RH  062%=      5-min Rain = 0
KNOR 170355Z 16005KT 10/03 A2995 RMK A01 T01040033  RH  062%=      5-min Rain = 0
KNOR 170400Z 16006KT 11/03 A2995 RMK A01 T01050033  RH  062%=      5-min Rain = 0
KNOR 170405Z 16006KT 11/03 A2995 RMK A01 T01060034  RH  062%=      5-min Rain = 0
KNOR 170410Z 16006KT 11/03 A2995 RMK A01 T01060033  RH  062%=      5-min Rain = 0
KNOR 170415Z 16003KT 11/03 A2995 RMK A01 T01050033  RH  062%=      5-min Rain = 0
KNOR 170420Z 15002KT 11/03 A2995 RMK A01 T01050033  RH  062%=      5-min Rain = 0
KNOR 170425Z 16002KT 10/03 A2995 RMK A01 T01040032  RH  062%=      5-min Rain = 0
KNOR 170430Z 15002KT 10/03 A2995 RMK A01 T01030033  RH  063%=      5-min Rain = 0
KNOR 170435Z 17000KT 10/03 A2995 RMK A01 T01000031  RH  063%=      5-min Rain = 0
KNOR 170440Z 31000KT 09/03 A2996 RMK A01 T00940030  RH  066%=      5-min Rain = 0
KNOR 170445Z 13001KT 09/03 A2996 RMK A01 T00940031  RH  066%=      5-min Rain = 0
KNOR 170450Z 35000KT 09/03 A2996 RMK A01 T00920030  RH  066%=      5-min Rain = 0
KNOR 170455Z 18001KT 09/03 A2996 RMK A01 T00940031  RH  066%=      5-min Rain = 0
KNOR 170500Z 20002KT 10/03 A2996 RMK A01 T00950032  RH  066%=      5-min Rain = 0
KNOR 170505Z 19003KT 10/03 A2996 RMK A01 T00990033  RH  065%=      5-min Rain = 0
KNOR 170510Z 18004KT 10/03 A2996 RMK A01 T00990032  RH  064%=      5-min Rain = 0
KNOR 170515Z 18004KT 10/03 A2996 RMK A01 T00960031  RH  065%=      5-min Rain = 0
KNOR 170520Z 19004KT 09/03 A2996 RMK A01 T00940031  RH  066%=      5-min Rain = 0
KNOR 170525Z 18004KT 09/03 A2996 RMK A01 T00930031  RH  066%=      5-min Rain = 0
KNOR 170530Z 18005KT 09/03 A2996 RMK A01 T00930032  RH  067%=      5-min Rain = 0
KNOR 170535Z 18006KT 09/03 A2996 RMK A01 T00920032  RH  067%=      5-min Rain = 0
KNOR 170540Z 18005KT 09/03 A2996 RMK A01 T00900031  RH  068%=      5-min Rain = 0
KNOR 170545Z 18005KT 09/03 A2996 RMK A01 T00910032  RH  068%=      5-min Rain = 0
KNOR 170550Z 18005KT 09/03 A2996 RMK A01 T00920033  RH  068%=      5-min Rain = 0
KNOR 170555Z 18004KT 09/03 A2996 RMK A01 T00920033  RH  068%=      5-min Rain = 0

Page generated in 0.019 seconds.